Time;durP1;ratioP1;P1;durP2;ratioP2;P2;SDS_P1;SDS_P2;PMS_P1;PMS_P2;Temp;Humidity;BMP_temperature;BMP_pressure;BME280_temperature;BME280_humidity;BME280_pressure;Samples;Min_cycle;Max_cycle;Signal;HPM_P1;HPM_P2
2021/05/01 00:01:56;;;;;;;8.02;6.43;;;;;;;2.98;83.36;99721.47;4937123;28;20529;-72
2021/05/01 00:04:22;;;;;;;10.35;6.63;;;;;;;2.89;83.67;99718.97;4936198;28;20032;-70
2021/05/01 00:06:47;;;;;;;9.82;6.03;;;;;;;2.76;84.16;99717.00;4945955;28;20405;-70
2021/05/01 00:09:13;;;;;;;11.05;6.75;;;;;;;2.80;84.17;99717.44;4937632;28;20145;-69
2021/05/01 00:11:38;;;;;;;9.27;6.90;;;;;;;2.78;84.27;99716.81;4955928;28;20054;-71
2021/05/01 00:14:05;;;;;;;8.40;6.78;;;;;;;2.61;83.67;99708.28;4943348;28;20042;-71
2021/05/01 00:16:31;;;;;;;8.07;6.70;;;;;;;2.43;85.34;99709.53;4955820;28;20028;-70
2021/05/01 00:18:58;;;;;;;12.48;7.97;;;;;;;2.38;85.96;99716.44;4944966;28;20687;-70
2021/05/01 00:21:24;;;;;;;10.77;7.70;;;;;;;2.38;85.31;99725.25;4948787;29;20075;-70
2021/05/01 00:23:50;;;;;;;9.73;7.82;;;;;;;2.19;85.77;99718.69;4946265;28;20076;-70
2021/05/01 00:26:15;;;;;;;11.82;7.97;;;;;;;2.19;85.60;99716.88;4947228;28;20239;-70
2021/05/01 00:28:41;;;;;;;10.77;9.02;;;;;;;2.08;86.32;99716.53;4948605;28;20031;-69
2021/05/01 00:31:06;;;;;;;12.60;8.82;;;;;;;1.94;85.99;99713.72;4954525;28;20039;-72
2021/05/01 00:33:32;;;;;;;16.10;9.40;;;;;;;1.85;87.39;99726.31;4945220;28;20027;-72
2021/05/01 00:35:58;;;;;;;15.80;8.88;;;;;;;1.71;86.25;99711.19;4952616;28;20031;-72
2021/05/01 00:38:24;;;;;;;14.45;9.73;;;;;;;1.64;87.35;99713.78;4938444;28;20150;-72
2021/05/01 00:40:50;;;;;;;10.93;8.98;;;;;;;1.61;87.01;99712.28;4949095;28;20035;-72
2021/05/01 00:43:16;;;;;;;13.85;8.18;;;;;;;1.57;87.02;99710.22;4948490;28;20039;-72
2021/05/01 00:45:42;;;;;;;13.23;9.32;;;;;;;1.49;87.19;99713.78;4938708;28;20529;-72
2021/05/01 00:48:08;;;;;;;13.13;8.80;;;;;;;1.46;87.30;99712.31;4945187;28;20137;-72
2021/05/01 00:50:33;;;;;;;13.20;10.40;;;;;;;1.56;88.35;99712.03;4946307;28;20039;-72
2021/05/01 00:53:00;;;;;;;15.38;11.50;;;;;;;1.60;88.11;99715.97;4948120;28;20555;-72
2021/05/01 00:55:26;;;;;;;13.00;9.15;;;;;;;1.45;86.98;99718.63;4949007;28;20042;-72
2021/05/01 00:57:53;;;;;;;12.57;9.52;;;;;;;1.28;87.23;99709.22;4946828;28;20031;-72
2021/05/01 01:02:56;;;;;;;15.13;11.60;;;;;;;1.15;88.65;99707.19;4955039;28;20063;-70
2021/05/01 01:05:23;;;;;;;14.48;11.88;;;;;;;1.12;88.57;99697.75;4941435;28;20040;-70
2021/05/01 01:07:48;;;;;;;16.23;11.60;;;;;;;1.09;88.54;99699.94;4932508;29;20031;-70
2021/05/01 01:10:14;;;;;;;15.95;12.48;;;;;;;1.12;88.68;99702.22;4946761;29;20027;-72
2021/05/01 01:12:41;;;;;;;15.77;11.45;;;;;;;1.03;88.24;99704.16;4945576;28;20040;-72
2021/05/01 01:15:08;;;;;;;13.13;10.25;;;;;;;0.87;87.86;99705.13;4944506;28;20035;-71
2021/05/01 01:17:52;;;;;;;14.98;11.10;;;;;;;0.77;88.19;99699.25;4954305;28;20181;-72
2021/05/01 01:20:19;;;;;;;14.63;11.13;;;;;;;0.72;88.57;99710.38;4945934;28;20118;-71
2021/05/01 01:22:46;;;;;;;14.02;11.30;;;;;;;0.72;88.83;99707.72;4937666;28;20491;-71
2021/05/01 01:25:12;;;;;;;15.18;10.93;;;;;;;0.71;88.51;99703.44;4943373;29;20035;-72
2021/05/01 01:27:38;;;;;;;14.68;11.20;;;;;;;0.61;88.31;99698.41;4943250;28;20023;-71
2021/05/01 01:30:08;;;;;;;16.23;11.90;;;;;;;0.55;88.35;99701.75;4945338;28;20049;-72
2021/05/01 01:32:34;;;;;;;11.75;10.48;;;;;;;0.50;89.02;99699.63;4951592;28;20023;-72
2021/05/01 01:34:59;;;;;;;13.55;10.93;;;;;;;0.47;88.67;99702.63;4943168;28;20039;-72
2021/05/01 01:37:25;;;;;;;13.57;11.50;;;;;;;0.41;89.16;99704.19;4939898;28;20035;-72
2021/05/01 01:39:51;;;;;;;17.27;12.40;;;;;;;0.41;89.49;99700.69;4946871;28;20083;-71
2021/05/01 01:42:17;;;;;;;19.90;13.77;;;;;;;0.44;89.78;99697.69;4944163;28;20035;-72
2021/05/01 01:44:42;;;;;;;18.60;13.77;;;;;;;0.42;89.63;99700.53;4946755;28;20039;-72
2021/05/01 01:47:08;;;;;;;19.27;14.30;;;;;;;0.41;89.62;99693.59;4940442;28;21026;-71
2021/05/01 01:49:35;;;;;;;22.80;14.25;;;;;;;0.43;89.94;99696.03;4940105;28;20068;-72
2021/05/01 01:52:00;;;;;;;19.30;14.40;;;;;;;0.37;89.23;99697.59;4950010;28;20031;-73
2021/05/01 01:54:26;;;;;;;17.80;12.98;;;;;;;0.31;88.98;99700.09;4946044;28;20045;-72
2021/05/01 01:56:52;;;;;;;16.73;13.90;;;;;;;0.30;89.17;99691.34;4951485;28;20031;-72
2021/05/01 01:59:17;;;;;;;19.40;14.57;;;;;;;0.29;89.48;99689.69;4948472;28;20397;-72
2021/05/01 02:01:43;;;;;;;17.23;13.63;;;;;;;0.40;89.64;99694.59;4950280;28;20031;-72
2021/05/01 02:04:08;;;;;;;15.40;12.60;;;;;;;0.31;89.09;99690.34;4950790;28;20090;-70
2021/05/01 02:06:34;;;;;;;21.98;16.55;;;;;;;0.48;90.74;99693.69;4946406;28;20524;-72
2021/05/01 02:09:00;;;;;;;21.20;16.42;;;;;;;0.50;90.25;99694.31;4943368;28;20115;-72
2021/05/01 02:11:25;;;;;;;24.52;18.60;;;;;;;0.62;91.23;99700.03;4945528;28;20493;-72
2021/05/01 02:13:51;;;;;;;26.80;17.92;;;;;;;0.58;90.38;99691.59;4944932;28;20047;-71
2021/05/01 02:16:17;;;;;;;19.48;16.15;;;;;;;0.54;90.33;99692.97;4940054;28;20034;-72
2021/05/01 02:18:42;;;;;;;21.17;17.10;;;;;;;0.61;90.46;99689.59;4945612;28;20035;-72
2021/05/01 02:21:08;;;;;;;28.17;20.27;;;;;;;0.70;90.84;99689.38;4947033;28;20074;-72
2021/05/01 02:23:34;;;;;;;25.85;20.42;;;;;;;0.77;90.94;99697.41;4944802;28;20090;-72
2021/05/01 02:26:00;;;;;;;27.38;21.55;;;;;;;1.00;91.14;99693.91;4948441;28;20385;-71
2021/05/01 02:28:26;;;;;;;27.80;20.58;;;;;;;1.10;91.10;99697.13;4935856;29;20031;-71
2021/05/01 02:30:51;;;;;;;24.90;19.40;;;;;;;1.24;91.11;99698.13;4950083;28;20047;-72
2021/05/01 02:33:17;;;;;;;31.10;21.65;;;;;;;1.45;91.04;99701.88;4950041;28;20036;-71
2021/05/01 02:35:43;;;;;;;29.52;21.15;;;;;;;1.63;90.71;99693.53;4948746;28;20078;-71
2021/05/01 02:38:09;;;;;;;25.25;19.65;;;;;;;1.75;90.34;99700.03;4948626;28;20031;-71
2021/05/01 02:40:35;;;;;;;27.23;19.67;;;;;;;1.84;90.02;99700.75;4951087;28;20074;-71
2021/05/01 02:43:10;;;;;;;31.40;21.05;;;;;;;1.97;89.22;99699.25;4948376;28;20397;-71
2021/05/01 02:45:36;;;;;;;26.50;18.60;;;;;;;2.02;88.97;99689.69;4949681;28;20031;-71
2021/05/01 02:48:06;;;;;;;23.05;18.20;;;;;;;2.05;88.88;99683.22;4948621;28;20318;-71
2021/05/01 02:50:31;;;;;;;33.42;19.88;;;;;;;2.15;88.75;99696.16;4951347;28;20032;-71
2021/05/01 02:52:57;;;;;;;24.23;17.52;;;;;;;2.16;89.13;99692.50;4944355;28;20091;-70
2021/05/01 02:55:23;;;;;;;27.27;18.77;;;;;;;2.24;88.92;99694.22;4937050;29;20031;-71
2021/05/01 02:57:49;;;;;;;26.60;17.73;;;;;;;2.34;87.90;99697.41;4953950;28;20646;-71
2021/05/01 03:00:18;;;;;;;21.85;16.75;;;;;;;2.34;87.66;99692.09;4946687;28;20039;-71
2021/05/01 03:02:44;;;;;;;24.48;16.90;;;;;;;2.32;87.44;99691.44;4944570;28;20068;-71
2021/05/01 03:05:11;;;;;;;24.05;16.15;;;;;;;2.28;87.74;99685.66;4955295;28;20043;-71
2021/05/01 03:07:38;;;;;;;27.25;16.88;;;;;;;2.38;87.21;99684.53;4955720;28;20162;-70
2021/05/01 03:10:12;;;;;;;19.42;15.73;;;;;;;2.33;86.98;99687.78;4946342;28;20118;-71
2021/05/01 03:12:37;;;;;;;20.33;15.48;;;;;;;2.16;87.24;99684.53;4945951;28;20046;-72
2021/05/01 03:15:05;;;;;;;19.20;16.45;;;;;;;2.10;87.81;99683.47;4946920;28;20035;-71
2021/05/01 03:17:31;;;;;;;19.30;15.77;;;;;;;2.04;87.70;99673.59;4943532;28;20035;-70
2021/05/01 03:19:56;;;;;;;28.23;17.48;;;;;;;2.02;88.23;99680.94;4948631;28;20031;-72
2021/05/01 03:22:22;;;;;;;22.67;17.27;;;;;;;1.95;87.55;99677.38;4938523;29;20039;-72
2021/05/01 03:24:48;;;;;;;30.35;17.52;;;;;;;2.04;88.10;99678.91;4952150;28;20043;-73
2021/05/01 03:27:13;;;;;;;23.50;18.38;;;;;;;1.97;88.21;99681.47;4954718;28;20027;-72
2021/05/01 03:29:39;;;;;;;26.40;18.10;;;;;;;1.92;88.21;99673.25;4955636;28;20593;-72
2021/05/01 03:32:05;;;;;;;24.88;18.73;;;;;;;1.82;88.52;99678.88;4951213;28;20031;-72
2021/05/01 03:34:31;;;;;;;33.58;19.92;;;;;;;1.88;88.58;99677.28;4952595;28;20031;-72
2021/05/01 03:36:56;;;;;;;24.30;19.65;;;;;;;1.87;88.80;99672.97;4955563;28;20098;-72
2021/05/01 03:39:22;;;;;;;30.58;18.83;;;;;;;1.85;88.50;99675.00;4950573;28;20108;-71
2021/05/01 03:41:48;;;;;;;26.48;18.35;;;;;;;1.80;88.69;99678.25;4953228;28;20120;-71
2021/05/01 03:44:14;;;;;;;31.17;19.77;;;;;;;1.72;88.74;99675.66;4948624;28;20495;-70
2021/05/01 03:46:40;;;;;;;27.50;19.17;;;;;;;1.69;89.18;99678.69;4954547;28;20047;-72
2021/05/01 03:49:06;;;;;;;29.67;21.02;;;;;;;1.66;89.48;99676.41;4953488;28;20058;-72
2021/05/01 03:51:32;;;;;;;31.45;21.08;;;;;;;1.60;89.51;99684.09;4951627;28;20032;-72
2021/05/01 03:53:57;;;;;;;31.85;20.08;;;;;;;1.55;89.63;99677.72;4944412;28;20031;-72
2021/05/01 03:56:23;;;;;;;29.58;21.58;;;;;;;1.48;89.47;99676.81;4955494;28;20038;-70
2021/05/01 03:58:49;;;;;;;33.95;23.70;;;;;;;1.63;89.51;99664.34;4932351;29;20032;-70
2021/05/01 04:01:15;;;;;;;32.92;20.83;;;;;;;1.58;89.62;99664.06;4952698;28;20027;-71
2021/05/01 04:03:41;;;;;;;27.58;19.83;;;;;;;1.49;89.39;99668.66;4940560;28;20398;-71
2021/05/01 04:06:06;;;;;;;30.80;22.13;;;;;;;1.50;89.80;99664.19;4947146;28;20039;-71
2021/05/01 04:08:32;;;;;;;33.45;22.50;;;;;;;1.43;89.84;99669.38;4946638;29;20401;-71
2021/05/01 04:10:58;;;;;;;30.15;22.27;;;;;;;1.34;90.10;99671.31;4952652;28;20035;-71
2021/05/01 04:13:25;;;;;;;24.83;18.50;;;;;;;1.13;88.91;99664.94;4947668;28;20039;-71
2021/05/01 04:15:51;;;;;;;28.73;20.52;;;;;;;0.97;89.36;99667.75;4954954;28;20113;-71
2021/05/01 04:18:17;;;;;;;33.72;19.92;;;;;;;0.86;89.68;99669.00;4946854;28;20035;-71
2021/05/01 04:20:43;;;;;;;30.83;19.40;;;;;;;0.78;89.76;99666.44;4942058;28;20040;-70
2021/05/01 04:23:08;;;;;;;31.30;21.50;;;;;;;0.79;90.32;99676.03;4938040;28;20039;-70
2021/05/01 04:25:37;;;;;;;28.85;19.35;;;;;;;0.67;89.83;99670.34;4946442;28;20031;-71
2021/05/01 04:28:05;;;;;;;35.10;23.98;;;;;;;0.64;90.67;99671.53;4945884;28;20050;-70
2021/05/01 04:30:31;;;;;;;30.63;20.20;;;;;;;0.47;89.30;99665.53;4950035;28;20055;-70
2021/05/01 04:32:57;;;;;;;26.75;19.80;;;;;;;0.38;89.73;99669.25;4949811;28;20074;-71
2021/05/01 04:35:22;;;;;;;34.08;23.92;;;;;;;0.42;91.44;99676.69;4953622;29;20117;-71
2021/05/01 04:37:48;;;;;;;29.95;20.73;;;;;;;0.32;90.39;99683.19;4942520;28;20530;-71
2021/05/01 04:40:14;;;;;;;49.30;26.60;;;;;;;0.41;91.34;99675.03;4945905;28;20040;-71
2021/05/01 04:42:51;;;;;;;33.90;22.58;;;;;;;0.38;91.33;99678.03;4946233;28;20421;-72
2021/05/01 04:45:17;;;;;;;42.10;25.05;;;;;;;0.45;91.67;99683.44;4953792;28;20046;-71
2021/05/01 04:47:44;;;;;;;35.22;22.85;;;;;;;0.42;90.99;99684.63;4949368;28;20118;-70
2021/05/01 04:50:13;;;;;;;32.42;21.85;;;;;;;0.33;90.91;99680.41;4938735;28;20090;-71
2021/05/01 04:52:38;;;;;;;39.97;23.50;;;;;;;0.29;90.99;99687.84;4943647;28;20055;-71
2021/05/01 04:55:13;;;;;;;32.70;22.33;;;;;;;0.29;91.10;99684.41;4948979;29;20400;-70
2021/05/01 04:57:45;;;;;;;41.97;25.88;;;;;;;0.34;91.28;99694.44;4948445;28;20027;-70
2021/05/01 05:00:13;;;;;;;36.97;23.95;;;;;;;0.38;91.36;99696.59;4949802;28;20126;-70
2021/05/01 05:02:38;;;;;;;51.03;29.40;;;;;;;0.58;92.12;99696.09;4947506;28;20050;-70
2021/05/01 05:05:06;;;;;;;55.95;29.75;;;;;;;0.83;92.56;99698.53;4937452;28;20044;-71
2021/05/01 05:07:32;;;;;;;55.85;31.73;;;;;;;1.10;91.82;99697.13;4939160;28;20035;-72
2021/05/01 05:09:57;;;;;;;57.33;32.25;;;;;;;1.20;91.99;99702.16;4941784;28;20038;-72
2021/05/01 05:12:23;;;;;;;41.17;25.55;;;;;;;1.13;91.14;99704.72;4941628;28;20039;-72
2021/05/01 05:14:48;;;;;;;48.38;27.00;;;;;;;1.09;90.98;99710.56;4951284;28;20114;-72
2021/05/01 05:17:14;;;;;;;45.33;30.85;;;;;;;1.09;91.13;99714.03;4942693;29;20055;-72
2021/05/01 05:19:40;;;;;;;58.70;31.58;;;;;;;1.19;91.04;99710.31;4946002;28;20041;-72
2021/05/01 05:22:05;;;;;;;45.63;27.83;;;;;;;1.15;90.46;99708.00;4945431;28;20126;-72
2021/05/01 05:24:31;;;;;;;44.45;28.80;;;;;;;1.17;90.77;99707.81;4938190;28;20044;-72
2021/05/01 05:26:57;;;;;;;45.90;29.85;;;;;;;1.30;91.39;99710.66;4953430;28;20035;-72
2021/05/01 05:29:22;;;;;;;46.03;29.55;;;;;;;1.41;91.50;99717.34;4949328;28;20035;-72
2021/05/01 05:31:48;;;;;;;53.10;31.15;;;;;;;1.55;90.71;99720.19;4952826;28;20031;-72
2021/05/01 05:34:13;;;;;;;48.35;29.23;;;;;;;1.68;90.47;99722.19;4933673;28;20050;-72
2021/05/01 05:36:40;;;;;;;51.60;31.17;;;;;;;1.88;90.52;99712.66;4952036;28;20492;-72
2021/05/01 05:39:07;;;;;;;42.92;28.48;;;;;;;2.03;89.78;99711.78;4951780;28;20074;-72
2021/05/01 05:41:33;;;;;;;49.05;30.48;;;;;;;2.25;89.88;99727.75;4949893;28;20027;-72
2021/05/01 05:43:59;;;;;;;42.05;27.35;;;;;;;2.55;88.23;99715.16;4952846;28;20441;-72
2021/05/01 05:46:27;;;;;;;35.50;24.75;;;;;;;2.63;87.81;99714.22;4949728;28;20493;-72
2021/05/01 05:48:52;;;;;;;38.38;25.20;;;;;;;2.80;87.67;99727.25;4952365;28;20033;-73
2021/05/01 05:51:18;;;;;;;38.03;24.00;;;;;;;2.99;86.03;99725.78;4949455;28;20485;-70
2021/05/01 05:53:44;;;;;;;31.92;22.08;;;;;;;3.12;85.98;99733.03;4949975;28;20066;-73
2021/05/01 05:56:10;;;;;;;31.30;20.58;;;;;;;3.29;85.12;99731.72;4952926;28;20042;-73
2021/05/01 05:58:36;;;;;;;34.75;20.10;;;;;;;3.39;84.45;99725.22;4953205;28;20035;-71
2021/05/01 06:01:02;;;;;;;29.60;19.90;;;;;;;3.60;82.98;99733.16;4940899;28;20497;-71
2021/05/01 06:03:28;;;;;;;28.20;19.85;;;;;;;3.62;83.11;99735.59;4938069;28;20040;-72
2021/05/01 06:06:01;;;;;;;24.67;17.90;;;;;;;3.65;82.70;99735.19;4935230;28;20461;-72
2021/05/01 06:08:29;;;;;;;32.17;19.67;;;;;;;3.66;82.63;99735.00;4933658;28;20039;-72
2021/05/01 06:10:57;;;;;;;25.58;17.27;;;;;;;3.81;82.39;99732.19;4936335;28;20122;-71
2021/05/01 06:13:24;;;;;;;29.75;16.40;;;;;;;3.68;82.31;99739.31;4945292;28;20118;-72
2021/05/01 06:15:54;;;;;;;26.08;15.50;;;;;;;3.72;82.39;99743.25;4939206;28;20035;-72
2021/05/01 06:18:22;;;;;;;29.48;17.25;;;;;;;3.64;82.84;99747.72;4944144;28;20449;-72
2021/05/01 06:20:47;;;;;;;34.13;15.90;;;;;;;3.65;82.50;99738.69;4938429;28;20057;-72
2021/05/01 06:23:19;;;;;;;26.33;13.75;;;;;;;3.70;82.46;99740.75;4943040;28;20497;-70
2021/05/01 06:25:46;;;;;;;23.70;14.57;;;;;;;3.72;82.44;99741.38;4946683;28;20122;-71
2021/05/01 06:28:12;;;;;;;31.55;15.63;;;;;;;3.78;82.10;99737.94;4950344;28;20059;-71
2021/05/01 06:30:39;;;;;;;31.17;14.70;;;;;;;3.87;81.98;99738.59;4945750;28;20036;-70
2021/05/01 06:33:12;;;;;;;22.73;13.95;;;;;;;3.92;81.30;99737.97;4933837;29;20035;-70
2021/05/01 06:35:39;;;;;;;20.73;12.50;;;;;;;4.12;80.93;99739.91;4950779;28;20035;-70
2021/05/01 06:38:05;;;;;;;18.15;11.25;;;;;;;4.30;79.59;99748.16;4947640;28;20041;-72
2021/05/01 06:40:43;;;;;;;22.45;12.30;;;;;;;4.38;79.22;99744.50;4950642;28;20035;-73
2021/05/01 06:43:18;;;;;;;27.55;10.32;;;;;;;4.54;78.05;99738.78;4945528;28;20497;-72
2021/05/01 06:45:44;;;;;;;14.70;9.57;;;;;;;4.59;78.02;99745.34;4950510;28;20027;-72
2021/05/01 06:48:22;;;;;;;18.48;8.70;;;;;;;4.72;76.52;99742.69;4944532;28;20039;-73
2021/05/01 06:50:48;;;;;;;20.90;8.65;;;;;;;4.76;76.73;99741.25;4943670;28;20032;-75
2021/05/01 06:53:29;;;;;;;15.98;7.35;;;;;;;4.76;76.09;99741.25;4940568;28;20035;-73
2021/05/01 06:55:55;;;;;;;28.17;8.15;;;;;;;4.65;76.18;99747.22;4944139;28;20024;-72
2021/05/01 06:58:22;;;;;;;15.65;7.90;;;;;;;4.91;75.88;99751.75;4950071;29;20039;-68
2021/05/01 07:00:49;;;;;;;20.02;7.65;;;;;;;4.97;75.13;99744.75;4951626;28;20031;-70
2021/05/01 07:03:16;;;;;;;12.93;7.05;;;;;;;5.14;73.91;99747.84;4948994;28;20038;-68
2021/05/01 07:05:42;;;;;;;17.33;7.65;;;;;;;5.12;74.35;99747.22;4936371;28;20122;-68
2021/05/01 07:08:11;;;;;;;21.23;7.50;;;;;;;5.38;73.96;99745.56;4942305;28;20035;-69
2021/05/01 07:10:37;;;;;;;15.93;7.63;;;;;;;5.14;74.16;99745.19;4939791;28;20035;-68
2021/05/01 07:13:03;;;;;;;20.20;8.27;;;;;;;5.08;74.59;99746.00;4942010;28;20437;-68
2021/05/01 07:15:28;;;;;;;14.05;7.28;;;;;;;5.17;73.72;99750.09;4950458;29;20440;-69
2021/05/01 07:17:54;;;;;;;15.23;7.03;;;;;;;5.25;73.42;99754.41;4945317;28;20433;-69
2021/05/01 07:20:21;;;;;;;19.15;6.57;;;;;;;5.23;73.24;99751.94;4943374;28;20066;-69
2021/05/01 07:22:51;;;;;;;12.20;6.18;;;;;;;5.17;72.32;99747.44;4924589;28;20043;-69
2021/05/01 07:25:18;;;;;;;22.70;5.90;;;;;;;5.25;72.87;99754.41;4944861;29;20074;-68
2021/05/01 07:27:49;;;;;;;12.85;5.60;;;;;;;5.34;71.25;99749.66;4944997;28;20449;-68
2021/05/01 07:30:16;;;;;;;14.20;6.45;;;;;;;5.38;71.00;99754.41;4945410;28;20130;-68
2021/05/01 07:32:44;;;;;;;18.88;5.78;;;;;;;5.39;71.73;99757.88;4946798;28;20048;-69
2021/05/01 07:35:11;;;;;;;16.38;6.30;;;;;;;5.54;70.60;99755.00;4604021;28;9999849;-69
2021/05/01 07:37:40;;;;;;;28.70;6.03;;;;;;;5.61;70.32;99750.44;4945373;28;20627;-68
2021/05/01 07:40:10;;;;;;;21.52;7.97;;;;;;;5.63;70.45;99759.06;4943532;28;20031;-69
2021/05/01 07:42:39;;;;;;;16.15;5.43;;;;;;;5.42;70.57;99762.81;4933279;28;20040;-68
2021/05/01 07:45:05;;;;;;;15.32;5.47;;;;;;;5.60;69.53;99759.50;4942805;28;20044;-68
2021/05/01 07:47:33;;;;;;;12.63;5.15;;;;;;;5.41;70.72;99764.66;4950847;28;20504;-68
2021/05/01 07:49:59;;;;;;;33.80;6.18;;;;;;;5.70;70.36;99770.56;4942872;28;20028;-68
2021/05/01 07:52:29;;;;;;;14.40;5.18;;;;;;;5.94;67.84;99765.56;4940928;28;20085;-71
2021/05/01 07:54:55;;;;;;;14.45;5.40;;;;;;;6.09;68.14;99780.53;4925146;29;20034;-68
2021/05/01 07:57:20;;;;;;;12.48;5.90;;;;;;;6.01;67.78;99773.56;4953701;28;20115;-69
2021/05/01 07:59:46;;;;;;;13.98;5.05;;;;;;;6.05;68.65;99776.66;4948528;28;20039;-70
2021/05/01 08:02:11;;;;;;;9.70;4.88;;;;;;;5.91;67.55;99779.34;4945940;28;20071;-67
2021/05/01 08:04:37;;;;;;;16.33;5.90;;;;;;;5.66;68.60;99781.88;4942756;28;20032;-68
2021/05/01 08:07:03;;;;;;;12.30;5.85;;;;;;;5.55;69.63;99783.34;4948577;28;20374;-69
2021/05/01 08:09:28;;;;;;;13.82;6.13;;;;;;;5.54;69.62;99787.06;4950917;28;20031;-69
2021/05/01 08:11:54;;;;;;;12.25;5.82;;;;;;;5.49;69.80;99785.00;4936846;29;20039;-67
2021/05/01 08:14:19;;;;;;;12.45;5.80;;;;;;;5.64;69.77;99781.25;4953866;28;20045;-69
2021/05/01 08:16:45;;;;;;;11.18;4.38;;;;;;;5.71;68.06;99780.22;4954789;28;20054;-69
2021/05/01 08:19:11;;;;;;;19.48;5.15;;;;;;;5.64;68.53;99781.25;4952973;28;20122;-69
2021/05/01 08:21:37;;;;;;;18.17;5.45;;;;;;;5.69;68.48;99792.16;4942318;28;20051;-68
2021/05/01 08:24:04;;;;;;;13.90;4.45;;;;;;;5.83;68.25;99784.94;4934490;28;20047;-68
2021/05/01 08:26:30;;;;;;;20.67;4.72;;;;;;;5.95;67.93;99779.72;4953386;28;20082;-68
2021/05/01 08:28:56;;;;;;;13.27;4.50;;;;;;;5.89;67.32;99776.06;4941370;29;20482;-70
2021/05/01 08:31:21;;;;;;;20.17;5.20;;;;;;;6.17;66.57;99780.31;4952278;28;20031;-69
2021/05/01 08:33:48;;;;;;;12.95;4.47;;;;;;;6.15;66.31;99774.34;4947261;28;20067;-70
2021/05/01 08:36:14;;;;;;;17.48;4.68;;;;;;;6.02;66.81;99777.88;4939143;28;20085;-69
2021/05/01 08:38:40;;;;;;;12.43;3.72;;;;;;;6.41;65.05;99785.94;4943786;28;20027;-69
2021/05/01 08:41:06;;;;;;;17.80;4.18;;;;;;;6.21;65.12;99778.03;4946723;28;20043;-69
2021/05/01 08:43:32;;;;;;;12.50;4.60;;;;;;;6.18;65.76;99779.28;4953341;28;20027;-69
2021/05/01 08:45:59;;;;;;;15.45;4.57;;;;;;;6.39;65.76;99777.31;4943097;28;20047;-69
2021/05/01 08:48:26;;;;;;;9.82;3.90;;;;;;;6.36;64.20;99775.91;4926435;28;20043;-68
2021/05/01 08:51:01;;;;;;;23.23;4.47;;;;;;;6.19;65.48;99782.78;4946648;28;20058;-69
2021/05/01 08:53:27;;;;;;;11.82;4.40;;;;;;;6.46;65.09;99780.78;4951283;29;20432;-68
2021/05/01 08:55:53;;;;;;;20.13;4.78;;;;;;;6.21;65.38;99784.19;4949848;28;20090;-69
2021/05/01 08:58:19;;;;;;;14.75;4.18;;;;;;;6.21;65.29;99780.72;4950492;28;20048;-69
2021/05/01 09:00:49;;;;;;;21.05;4.57;;;;;;;6.30;65.18;99790.13;4952892;28;20063;-68
2021/05/01 09:03:20;;;;;;;11.77;3.80;;;;;;;6.55;63.42;99776.81;4945473;28;20095;-69
2021/05/01 09:05:46;;;;;;;9.57;3.30;;;;;;;6.92;63.40;99786.88;4949973;28;20061;-68
2021/05/01 09:08:15;;;;;;;15.90;3.75;;;;;;;6.88;62.89;99786.47;4938840;29;20557;-69
2021/05/01 09:10:49;;;;;;;4.47;2.88;;;;;;;7.23;60.89;99787.06;4947621;28;20035;-69
2021/05/01 09:13:18;;;;;;;11.43;2.97;;;;;;;7.02;59.83;99786.38;4949855;28;20067;-69
2021/05/01 09:16:04;;;;;;;8.55;3.00;;;;;;;7.08;60.50;99788.22;4950930;28;20049;-68
2021/05/01 09:18:53;;;;;;;12.25;3.85;;;;;;;6.82;62.54;99787.34;4951373;29;20038;-68
2021/05/01 09:21:24;;;;;;;16.58;3.70;;;;;;;7.30;62.05;99785.94;4949552;28;20054;-68
2021/05/01 09:23:51;;;;;;;16.73;4.38;;;;;;;6.91;61.50;99787.09;4947691;28;20039;-68
2021/05/01 09:26:20;;;;;;;10.20;3.45;;;;;;;7.09;60.63;99786.34;4937970;28;20035;-69
2021/05/01 09:28:49;;;;;;;9.00;3.67;;;;;;;7.06;60.09;99784.91;4949787;28;20477;-68
2021/05/01 09:31:17;;;;;;;8.75;3.65;;;;;;;6.87;60.45;99781.34;4942621;28;20043;-69
2021/05/01 09:33:48;;;;;;;6.22;2.95;;;;;;;7.07;60.12;99783.06;4939696;28;21004;-68
2021/05/01 09:36:16;;;;;;;8.32;3.85;;;;;;;7.02;60.20;99786.38;4604631;28;9999803;-70
2021/05/01 09:38:48;;;;;;;16.52;4.25;;;;;;;7.31;60.66;99778.75;4949138;28;20064;-69
2021/05/01 09:41:19;;;;;;;16.45;4.22;;;;;;;7.33;60.34;99780.16;4947823;28;20481;-68
2021/05/01 09:44:03;;;;;;;11.65;4.72;;;;;;;7.41;59.87;99784.44;4948544;28;20508;-68
2021/05/01 09:46:49;;;;;;;;;;;;;;;7.68;58.49;99786.84;4951160;28;20109;-68
2021/05/01 09:49:16;;;;;;;7.20;3.08;;;;;;;7.79;58.52;99779.09;4942254;28;19919;-68
2021/05/01 09:51:47;;;;;;;11.35;3.08;;;;;;;7.63;57.95;99781.31;4949457;28;20440;-68
2021/05/01 09:54:14;;;;;;;9.82;3.03;;;;;;;7.66;56.56;99778.19;4947672;28;20482;-69
2021/05/01 09:56:41;;;;;;;8.48;3.30;;;;;;;7.61;57.14;99788.78;4948586;28;20028;-69
2021/05/01 09:59:08;;;;;;;9.23;2.63;;;;;;;7.14;58.12;99773.94;4950541;28;20171;-68
2021/05/01 10:01:34;;;;;;;11.68;3.78;;;;;;;7.10;57.89;99778.09;4945592;28;20043;-69
2021/05/01 10:04:17;;;;;;;12.18;3.03;;;;;;;7.11;58.87;99778.91;4943348;28;20039;-68
2021/05/01 10:06:48;;;;;;;10.30;2.20;;;;;;;7.39;57.41;99778.47;4946873;28;20035;-69
2021/05/01 10:09:26;;;;;;;12.65;2.80;;;;;;;7.54;54.89;99769.25;4940400;28;20039;-67
2021/05/01 10:11:53;;;;;;;10.65;2.45;;;;;;;7.93;54.44;99785.94;4935314;28;20043;-68
2021/05/01 10:14:33;;;;;;;4.35;2.13;;;;;;;7.74;56.09;99777.06;4944369;28;20039;-68
2021/05/01 10:17:00;;;;;;;10.23;2.13;;;;;;;7.73;54.68;99780.78;4943107;28;20036;-68
2021/05/01 10:19:51;;;;;;;10.73;2.20;;;;;;;7.66;53.74;99780.88;4950852;28;20027;-66
2021/05/01 10:22:39;;;;;;;5.53;1.60;;;;;;;8.12;51.13;99783.25;4943900;28;20390;-68
2021/05/01 10:25:07;;;;;;;19.33;2.47;;;;;;;8.27;51.74;99762.22;4943654;28;20047;-71
2021/05/01 10:27:44;;;;;;;9.57;2.17;;;;;;;8.72;51.00;99776.28;4927332;28;20039;-70
2021/05/01 10:30:27;;;;;;;8.90;2.65;;;;;;;7.71;54.31;99778.34;4947957;28;20039;-68
2021/05/01 10:32:57;;;;;;;;;;;;;;;8.04;54.17;99776.34;4926921;29;20429;-70
2021/05/01 10:35:23;;;;;;;11.73;2.38;;;;;;;7.72;54.83;99768.44;4930966;28;19934;-70
2021/05/01 10:37:57;;;;;;;8.10;2.35;;;;;;;7.93;54.94;99779.75;4931269;28;20039;-69
2021/05/01 10:40:25;;;;;;;6.65;2.35;;;;;;;8.00;54.95;99770.59;4927662;28;20034;-70
2021/05/01 10:43:14;;;;;;;10.18;3.45;;;;;;;7.88;55.61;99772.41;4932454;28;20027;-69
2021/05/01 10:45:47;;;;;;;10.15;2.60;;;;;;;7.64;56.14;99769.56;4931699;28;20036;-69
2021/05/01 10:48:13;;;;;;;17.07;3.20;;;;;;;7.45;55.73;99768.72;4935614;28;20039;-70
2021/05/01 10:50:39;;;;;;;11.13;2.65;;;;;;;7.07;55.60;99767.81;4937503;28;20639;-69
2021/05/01 10:53:16;;;;;;;5.80;2.50;;;;;;;7.57;55.34;99758.09;4949205;28;20094;-69
2021/05/01 10:55:45;;;;;;;13.93;2.85;;;;;;;7.69;55.21;99760.84;4940954;28;20115;-69
2021/05/01 10:58:10;;;;;;;6.63;2.88;;;;;;;8.12;54.67;99765.31;4930532;29;20394;-69
2021/05/01 11:00:42;;;;;;;8.20;3.00;;;;;;;7.73;55.04;99759.34;4930197;28;20051;-68
2021/05/01 11:03:08;;;;;;;8.15;2.30;;;;;;;7.71;53.78;99762.25;4932250;28;20040;-69
2021/05/01 11:05:41;;;;;;;9.90;2.72;;;;;;;7.54;55.22;99753.97;4939714;28;20035;-69
2021/05/01 11:08:18;;;;;;;7.03;2.67;;;;;;;7.88;54.20;99757.09;4935123;28;20545;-68
2021/05/01 11:10:47;;;;;;;5.05;2.35;;;;;;;8.10;52.71;99753.16;4932156;28;20031;-68
2021/05/01 11:13:22;;;;;;;4.60;2.70;;;;;;;7.68;52.91;99753.84;4943133;28;20042;-68
2021/05/01 11:15:50;;;;;;;6.18;2.40;;;;;;;7.74;53.37;99748.41;4934624;28;20047;-68
2021/05/01 11:18:20;;;;;;;9.20;2.78;;;;;;;7.91;52.91;99737.09;4945608;28;20101;-68
2021/05/01 11:20:47;;;;;;;4.78;2.40;;;;;;;8.12;51.12;99737.66;4948552;28;20740;-68
2021/05/01 11:23:15;;;;;;;10.00;2.20;;;;;;;7.47;49.78;99734.47;4945502;28;20036;-68
2021/05/01 11:25:42;;;;;;;11.00;2.40;;;;;;;7.98;51.17;99740.50;4952947;28;20070;-68
2021/05/01 11:28:12;;;;;;;9.50;2.63;;;;;;;7.96;51.98;99747.16;4956055;28;20042;-68
2021/05/01 11:30:38;;;;;;;5.80;2.65;;;;;;;7.82;54.05;99738.44;4949934;28;20035;-67
2021/05/01 11:33:04;;;;;;;9.20;3.03;;;;;;;7.76;52.88;99735.59;4948464;28;20042;-68
2021/05/01 11:35:31;;;;;;;8.23;2.95;;;;;;;7.86;52.57;99737.75;4951355;28;20031;-70
2021/05/01 11:38:00;;;;;;;11.13;3.15;;;;;;;7.58;56.12;99727.56;4950617;28;20512;-70